createdAt,value
2017-01-17T00:00:12.467Z,0
2017-01-17T00:00:54.722Z,0
2017-01-17T00:01:36.032Z,0
2017-01-17T00:02:16.508Z,0
2017-01-17T00:02:58.937Z,0
2017-01-17T00:03:40.128Z,0
2017-01-17T00:04:20.608Z,0
2017-01-17T00:05:01.736Z,0
2017-01-17T00:05:42.202Z,0
2017-01-17T00:06:22.721Z,0
2017-01-17T00:07:06.709Z,0
2017-01-17T00:07:47.955Z,0
2017-01-17T00:08:31.792Z,0
2017-01-17T00:09:13.789Z,0
2017-01-17T00:09:56.025Z,0
2017-01-17T00:10:38.945Z,0
2017-01-17T00:11:23.805Z,0
2017-01-17T00:12:04.770Z,0
2017-01-17T00:12:46.244Z,0
2017-01-17T00:13:29.291Z,0
2017-01-17T00:14:09.764Z,0
2017-01-17T00:14:51.207Z,0
2017-01-17T00:15:36.220Z,0
2017-01-17T00:16:16.669Z,0
2017-01-17T00:16:57.192Z,0
2017-01-17T00:17:37.650Z,0
2017-01-17T00:18:18.752Z,0
2017-01-17T00:18:59.197Z,0
2017-01-17T00:19:41.459Z,0
2017-01-17T00:20:23.339Z,0
2017-01-17T00:21:06.197Z,0
2017-01-17T00:21:51.423Z,0
2017-01-17T00:22:32.533Z,0
2017-01-17T00:23:14.926Z,0
2017-01-17T00:23:55.895Z,0
2017-01-17T00:24:36.520Z,0
2017-01-17T00:25:16.889Z,0
2017-01-17T00:25:58.796Z,0
2017-01-17T00:26:40.197Z,0
2017-01-17T00:27:20.729Z,0
2017-01-17T00:28:01.792Z,0
2017-01-17T00:28:43.933Z,0
2017-01-17T00:29:26.294Z,0
2017-01-17T00:30:08.417Z,0
2017-01-17T00:30:51.437Z,0
2017-01-17T00:31:36.911Z,0
2017-01-17T00:32:17.415Z,0
2017-01-17T00:32:59.209Z,0
2017-01-17T00:33:42.226Z,0
2017-01-17T00:34:26.187Z,0
2017-01-17T00:35:08.343Z,0
2017-01-17T00:35:48.773Z,0
2017-01-17T00:36:29.254Z,0
2017-01-17T00:37:10.569Z,0
2017-01-17T00:37:52.014Z,0
2017-01-17T00:38:34.705Z,0
2017-01-17T00:41:03.070Z,0
2017-01-17T00:41:46.483Z,0
2017-01-17T00:42:27.475Z,0
2017-01-17T00:43:09.675Z,0
2017-01-17T00:43:50.153Z,0
2017-01-17T00:44:31.380Z,0
2017-01-17T00:45:13.573Z,0
2017-01-17T00:45:56.579Z,0
2017-01-17T00:46:37.854Z,0
2017-01-17T00:47:19.867Z,0
2017-01-17T00:48:02.087Z,0
2017-01-17T00:48:45.062Z,0
2017-01-17T00:49:25.528Z,0
2017-01-17T00:50:06.010Z,0
2017-01-17T00:50:49.068Z,0
2017-01-17T00:51:31.471Z,0
2017-01-17T00:52:11.941Z,0
2017-01-17T00:52:52.443Z,0
2017-01-17T00:53:32.886Z,0
2017-01-17T00:54:13.355Z,0
2017-01-17T00:54:54.573Z,0
2017-01-17T00:55:36.969Z,0
2017-01-17T00:56:18.278Z,0
2017-01-17T00:57:00.452Z,0
2017-01-17T00:57:40.974Z,0
2017-01-17T00:58:21.446Z,0
2017-01-17T00:59:02.901Z,0
2017-01-17T00:59:45.289Z,0
2017-01-17T01:00:25.761Z,0
2017-01-17T01:01:06.244Z,0
2017-01-17T01:01:48.267Z,0
2017-01-17T01:02:30.056Z,0
2017-01-17T01:03:10.545Z,0
2017-01-17T01:03:52.771Z,0
2017-01-17T01:04:33.280Z,0
2017-01-17T01:05:13.830Z,0
2017-01-17T01:05:54.941Z,0
2017-01-17T01:06:35.975Z,0
2017-01-17T01:07:20.559Z,0
2017-01-17T01:08:01.036Z,0
2017-01-17T01:08:41.554Z,0
2017-01-17T01:09:27.061Z,0
2017-01-17T01:10:08.041Z,0
2017-01-17T01:10:50.437Z,0
2017-01-17T01:11:33.572Z,0
2017-01-17T01:12:14.550Z,0
2017-01-17T01:12:56.807Z,0
2017-01-17T01:13:37.325Z,0
2017-01-17T01:14:19.141Z,0
2017-01-17T01:16:39.486Z,0
2017-01-17T01:17:20.932Z,0
2017-01-17T01:18:02.945Z,0
2017-01-17T01:18:45.265Z,0
2017-01-17T01:19:25.715Z,0
2017-01-17T01:20:06.216Z,0
2017-01-17T01:20:46.697Z,0
2017-01-17T01:21:27.224Z,0
2017-01-17T01:22:07.764Z,0
2017-01-17T01:22:49.160Z,0
2017-01-17T01:23:30.129Z,0
2017-01-17T01:24:11.516Z,0
2017-01-17T01:24:52.659Z,0
2017-01-17T01:25:33.140Z,0
2017-01-17T01:26:14.531Z,0
2017-01-17T01:26:55.043Z,0
2017-01-17T01:27:36.519Z,0
2017-01-17T01:28:16.997Z,0
2017-01-17T01:28:57.481Z,0
2017-01-17T01:29:40.622Z,0
2017-01-17T01:30:21.175Z,0
2017-01-17T01:31:02.322Z,0
2017-01-17T01:31:42.871Z,0
2017-01-17T01:32:24.139Z,0
2017-01-17T01:33:05.252Z,0
2017-01-17T01:33:45.735Z,0
2017-01-17T01:34:26.234Z,0
2017-01-17T01:35:09.023Z,0
2017-01-17T01:35:49.549Z,0
2017-01-17T01:36:30.070Z,0
2017-01-17T01:37:11.944Z,0
2017-01-17T01:37:52.421Z,0
2017-01-17T01:38:32.911Z,0
2017-01-17T01:39:13.378Z,0
2017-01-17T01:39:53.871Z,0
2017-01-17T01:40:36.020Z,0
2017-01-17T01:41:17.018Z,0
2017-01-17T01:41:59.321Z,0
2017-01-17T01:42:41.742Z,0
2017-01-17T01:43:24.952Z,0
2017-01-17T01:44:05.409Z,0
2017-01-17T01:44:45.914Z,0
2017-01-17T01:45:26.386Z,0
2017-01-17T01:46:06.915Z,0
2017-01-17T01:46:47.923Z,0
2017-01-17T01:47:30.926Z,0
2017-01-17T01:48:11.382Z,0
2017-01-17T01:48:51.876Z,0
2017-01-17T01:49:32.354Z,0
2017-01-17T01:50:14.506Z,0
2017-01-17T01:50:55.748Z,0
2017-01-17T01:51:36.983Z,0
2017-01-17T01:52:17.478Z,0
2017-01-17T01:52:57.984Z,0
2017-01-17T01:53:39.030Z,0
2017-01-17T01:54:19.532Z,0
2017-01-17T01:54:59.966Z,0
2017-01-17T01:55:40.447Z,0
2017-01-17T01:56:21.012Z,0
2017-01-17T01:57:02.248Z,0
2017-01-17T01:57:42.706Z,0
2017-01-17T01:58:23.210Z,0
2017-01-17T01:59:03.690Z,0
2017-01-17T01:59:45.122Z,0
2017-01-17T02:00:26.534Z,0
2017-01-17T02:01:08.475Z,0
2017-01-17T02:01:51.434Z,0
2017-01-17T02:02:31.930Z,0
2017-01-17T02:03:13.946Z,0
2017-01-17T02:03:55.255Z,0
2017-01-17T02:04:37.535Z,0
2017-01-17T02:05:18.017Z,0
2017-01-17T02:05:58.532Z,0
2017-01-17T02:06:39.054Z,0
2017-01-17T02:07:20.330Z,0
2017-01-17T02:08:00.833Z,0
2017-01-17T02:08:42.326Z,0
2017-01-17T02:09:23.747Z,0
2017-01-17T02:10:05.259Z,0
2017-01-17T02:10:45.752Z,0
2017-01-17T02:11:26.268Z,0
2017-01-17T02:12:06.734Z,0
2017-01-17T02:12:47.234Z,0
2017-01-17T02:13:28.256Z,0
2017-01-17T02:14:08.750Z,0
2017-01-17T02:14:51.950Z,0
2017-01-17T02:15:34.237Z,0
2017-01-17T02:16:14.685Z,0
2017-01-17T02:16:55.179Z,0
2017-01-17T02:17:37.416Z,0
2017-01-17T02:18:17.940Z,0
2017-01-17T02:18:59.351Z,0
2017-01-17T02:19:40.743Z,0
2017-01-17T02:20:21.235Z,0
2017-01-17T02:21:04.613Z,0
2017-01-17T02:21:45.997Z,0
2017-01-17T02:22:26.454Z,0
2017-01-17T02:23:06.931Z,0
2017-01-17T02:23:48.921Z,0
2017-01-17T02:24:29.405Z,0
2017-01-17T02:25:09.902Z,0
2017-01-17T02:25:50.343Z,0
2017-01-17T02:26:30.857Z,0
2017-01-17T02:27:11.348Z,0
2017-01-17T02:27:51.862Z,0
2017-01-17T02:28:32.298Z,0
2017-01-17T02:29:14.425Z,0
2017-01-17T02:29:58.668Z,0
2017-01-17T02:30:39.135Z,0
2017-01-17T02:31:20.352Z,0
2017-01-17T02:32:00.858Z,0
2017-01-17T02:32:42.237Z,0
2017-01-17T02:33:23.489Z,0
2017-01-17T02:34:03.896Z,0
2017-01-17T02:34:44.427Z,0
2017-01-17T02:35:26.740Z,0
2017-01-17T02:36:08.905Z,0
2017-01-17T02:36:49.450Z,0
2017-01-17T02:37:30.745Z,0
2017-01-17T02:38:14.417Z,0
2017-01-17T02:45:08.683Z,0
2017-01-17T02:45:48.759Z,0
2017-01-17T02:46:29.249Z,0
2017-01-17T02:47:10.362Z,0
2017-01-17T02:47:50.787Z,0
2017-01-17T02:48:33.054Z,0
2017-01-17T02:49:13.507Z,0
2017-01-17T02:49:54.952Z,0
2017-01-17T02:50:38.132Z,0
2017-01-17T02:51:18.603Z,0
2017-01-17T02:51:59.102Z,0
2017-01-17T02:52:42.472Z,0
2017-01-17T02:53:23.813Z,0
2017-01-17T02:54:04.833Z,0
2017-01-17T02:54:47.839Z,0
2017-01-17T02:55:28.367Z,0
2017-01-17T02:56:09.390Z,0
2017-01-17T02:56:49.893Z,0
2017-01-17T02:57:31.034Z,0
2017-01-17T02:58:12.276Z,0
2017-01-17T02:58:53.399Z,0
2017-01-17T02:59:35.734Z,0
2017-01-17T03:00:16.223Z,0
2017-01-17T03:00:57.410Z,0
2017-01-17T03:01:37.898Z,0
2017-01-17T03:02:19.812Z,0
2017-01-17T03:03:01.826Z,0
2017-01-17T03:03:42.301Z,0
2017-01-17T03:04:26.549Z,0
2017-01-17T03:05:07.035Z,0
2017-01-17T03:05:49.352Z,0
2017-01-17T03:06:30.631Z,0
2017-01-17T03:07:13.899Z,0
2017-01-17T03:07:54.395Z,0
2017-01-17T03:08:34.866Z,0
2017-01-17T03:09:15.917Z,0
2017-01-17T03:09:59.924Z,0
2017-01-17T03:10:40.424Z,0
2017-01-17T03:11:22.389Z,0
2017-01-17T03:12:03.717Z,0
2017-01-17T03:12:45.198Z,0
2017-01-17T03:13:25.730Z,0
2017-01-17T03:14:06.201Z,0
2017-01-17T03:14:46.689Z,0
2017-01-17T03:15:28.930Z,0
2017-01-17T03:16:11.209Z,0
2017-01-17T03:16:53.325Z,0
2017-01-17T03:17:34.624Z,0
2017-01-17T03:18:17.336Z,0
2017-01-17T03:18:57.790Z,0
2017-01-17T03:19:38.323Z,0
2017-01-17T03:20:18.787Z,0
2017-01-17T03:21:00.099Z,0
2017-01-17T03:21:41.453Z,0
2017-01-17T03:22:28.337Z,0
2017-01-17T03:23:11.409Z,0
2017-01-17T03:23:55.649Z,0
2017-01-17T03:24:37.140Z,0
2017-01-17T03:25:18.411Z,0
2017-01-17T03:25:59.818Z,0
2017-01-17T03:26:40.288Z,0
2017-01-17T03:27:21.636Z,0
2017-01-17T03:28:02.138Z,0
2017-01-17T03:28:43.849Z,0
2017-01-17T03:29:24.332Z,0
2017-01-17T03:30:04.824Z,0
2017-01-17T03:30:48.067Z,0
2017-01-17T03:31:29.816Z,0
2017-01-17T03:32:12.234Z,0
2017-01-17T03:32:52.762Z,0
2017-01-17T03:33:34.043Z,0
2017-01-17T03:34:16.834Z,0
2017-01-17T03:35:00.000Z,0
2017-01-17T03:35:41.345Z,0
2017-01-17T03:36:22.529Z,0
2017-01-17T03:37:03.006Z,0
2017-01-17T03:37:43.530Z,0
2017-01-17T03:38:24.019Z,0
2017-01-17T03:39:07.024Z,0
2017-01-17T03:39:50.144Z,0
2017-01-17T03:40:31.208Z,0
2017-01-17T03:41:13.316Z,0
2017-01-17T03:41:55.321Z,0
2017-01-17T03:42:36.311Z,0
2017-01-17T03:43:17.698Z,0
2017-01-17T03:44:00.887Z,0
2017-01-17T03:44:43.830Z,0
2017-01-17T03:45:25.904Z,0
2017-01-17T03:46:07.159Z,0
2017-01-17T03:46:49.331Z,0
2017-01-17T03:47:31.629Z,0
2017-01-17T03:48:12.083Z,0
2017-01-17T03:48:53.826Z,0
2017-01-17T03:49:34.283Z,0
2017-01-17T03:50:20.337Z,0
2017-01-17T03:51:00.825Z,0
2017-01-17T03:51:41.839Z,0
2017-01-17T03:52:22.298Z,0
2017-01-17T03:53:03.503Z,0
2017-01-17T03:53:44.721Z,0
2017-01-17T03:54:25.219Z,0
2017-01-17T03:55:07.057Z,0
2017-01-17T03:55:47.544Z,0
2017-01-17T03:56:31.841Z,0
2017-01-17T03:57:12.309Z,0
2017-01-17T03:57:52.822Z,0
2017-01-17T03:58:33.275Z,0
2017-01-17T03:59:13.728Z,0
2017-01-17T03:59:54.214Z,0
2017-01-17T04:02:24.889Z,0
2017-01-17T04:03:07.066Z,0
2017-01-17T04:03:47.604Z,0
2017-01-17T04:04:28.096Z,0
2017-01-17T04:06:43.477Z,0
2017-01-17T04:07:27.275Z,0
2017-01-17T04:09:44.666Z,0
2017-01-17T04:10:25.366Z,0
2017-01-17T04:11:12.736Z,0
2017-01-17T04:11:53.214Z,0
2017-01-17T04:12:34.430Z,0
2017-01-17T04:13:14.934Z,0
2017-01-17T04:13:55.391Z,0
2017-01-17T04:14:36.459Z,0
2017-01-17T04:15:17.443Z,0
2017-01-17T04:15:58.585Z,0
2017-01-17T04:16:39.555Z,0
2017-01-17T04:17:20.688Z,0
2017-01-17T04:18:02.074Z,0
2017-01-17T04:18:43.046Z,0
2017-01-17T04:19:23.562Z,0
2017-01-17T04:20:05.569Z,0
2017-01-17T04:20:47.358Z,0
2017-01-17T04:21:30.355Z,0
2017-01-17T04:22:12.767Z,0
2017-01-17T04:22:54.838Z,0
2017-01-17T04:23:35.834Z,0
2017-01-17T04:24:17.128Z,0
2017-01-17T04:24:59.542Z,0
2017-01-17T04:25:41.929Z,0
2017-01-17T04:26:22.383Z,0
2017-01-17T04:27:02.866Z,0
2017-01-17T04:27:55.846Z,0
2017-01-17T04:28:36.353Z,0
2017-01-17T04:29:16.836Z,0
2017-01-17T04:29:59.189Z,0
2017-01-17T04:30:40.869Z,0
2017-01-17T04:31:21.348Z,0
2017-01-17T04:32:01.820Z,0
2017-01-17T04:32:42.933Z,0
2017-01-17T04:33:24.089Z,0
2017-01-17T04:34:08.342Z,0
2017-01-17T04:34:51.728Z,0
2017-01-17T04:35:33.667Z,0
2017-01-17T04:36:14.932Z,0
2017-01-17T04:36:57.089Z,0
2017-01-17T04:37:44.071Z,0
2017-01-17T04:38:27.151Z,0
2017-01-17T04:39:09.544Z,0
2017-01-17T04:39:53.738Z,0
2017-01-17T04:40:34.940Z,0
2017-01-17T04:41:16.083Z,0
2017-01-17T04:42:00.932Z,0
2017-01-17T04:42:43.066Z,0
2017-01-17T04:43:24.358Z,0
2017-01-17T04:44:08.572Z,0
2017-01-17T04:44:50.562Z,0
2017-01-17T04:45:34.075Z,0
2017-01-17T04:46:15.355Z,0
2017-01-17T04:46:56.737Z,0
2017-01-17T04:47:37.262Z,0
2017-01-17T04:48:17.739Z,0
2017-01-17T04:49:03.084Z,0
2017-01-17T04:49:44.418Z,0
2017-01-17T04:50:26.574Z,0
2017-01-17T04:51:07.829Z,0
2017-01-17T04:51:48.297Z,0
2017-01-17T04:52:30.446Z,0
2017-01-17T04:53:12.335Z,0
2017-01-17T04:53:54.350Z,0
2017-01-17T04:54:35.431Z,0
2017-01-17T04:55:21.547Z,0
2017-01-17T04:56:02.924Z,0
2017-01-17T04:56:46.959Z,0
2017-01-17T04:57:29.842Z,0
2017-01-17T04:58:10.314Z,0
2017-01-17T04:58:51.749Z,0
2017-01-17T04:59:33.926Z,0
2017-01-17T05:00:18.856Z,0
2017-01-17T05:01:01.105Z,0
2017-01-17T05:01:41.607Z,0
2017-01-17T05:02:22.048Z,0
2017-01-17T05:03:06.856Z,0
2017-01-17T05:03:47.322Z,0
2017-01-17T05:04:28.558Z,0
2017-01-17T05:05:09.028Z,0
2017-01-17T05:05:50.917Z,0
2017-01-17T05:06:32.173Z,0
2017-01-17T05:07:12.655Z,0
2017-01-17T05:07:54.328Z,0
2017-01-17T05:08:34.822Z,0
2017-01-17T05:09:16.230Z,0
2017-01-17T05:09:57.930Z,0
2017-01-17T05:10:38.437Z,0
2017-01-17T05:11:18.946Z,0
2017-01-17T05:12:00.347Z,0
2017-01-17T05:12:40.812Z,0
2017-01-17T05:13:26.861Z,0
2017-01-17T05:14:07.330Z,0
2017-01-17T05:14:47.846Z,0
2017-01-17T05:15:28.326Z,0
2017-01-17T05:16:08.792Z,0
2017-01-17T05:16:50.231Z,0
2017-01-17T05:17:30.762Z,0
2017-01-17T05:18:11.230Z,0
2017-01-17T05:18:51.742Z,0
2017-01-17T05:19:32.176Z,0
2017-01-17T05:21:45.523Z,0
2017-01-17T05:22:25.844Z,0
2017-01-17T05:24:55.545Z,0
2017-01-17T05:25:35.959Z,0
2017-01-17T05:26:16.553Z,0
2017-01-17T05:26:57.264Z,0
2017-01-17T05:27:37.742Z,0
2017-01-17T05:28:18.214Z,0
2017-01-17T05:28:58.711Z,0
2017-01-17T05:29:39.254Z,0
2017-01-17T05:30:20.680Z,0
2017-01-17T05:31:01.190Z,0
2017-01-17T05:31:43.613Z,0
2017-01-17T05:32:24.777Z,0
2017-01-17T05:33:05.349Z,0
2017-01-17T05:33:46.585Z,0
2017-01-17T05:34:28.673Z,0
2017-01-17T05:35:09.848Z,0
2017-01-17T05:35:52.289Z,0
2017-01-17T05:36:36.277Z,0
2017-01-17T05:37:17.577Z,0
2017-01-17T05:37:58.880Z,0
2017-01-17T05:38:39.412Z,0
2017-01-17T05:39:21.674Z,0
2017-01-17T05:40:02.775Z,0
2017-01-17T05:40:43.242Z,0
2017-01-17T05:41:25.383Z,0
2017-01-17T05:42:06.645Z,0
2017-01-17T05:42:48.642Z,0
2017-01-17T05:43:29.219Z,0
2017-01-17T05:44:09.763Z,0
2017-01-17T05:44:50.291Z,0
2017-01-17T05:45:30.770Z,0
2017-01-17T05:46:11.276Z,0
2017-01-17T05:46:51.736Z,0
2017-01-17T05:47:32.773Z,0
2017-01-17T05:48:13.235Z,0
2017-01-17T05:48:56.348Z,0
2017-01-17T05:49:36.866Z,0
2017-01-17T05:50:18.187Z,0
2017-01-17T05:50:59.521Z,0
2017-01-17T05:51:39.994Z,0
2017-01-17T05:52:20.458Z,0
2017-01-17T05:53:01.847Z,0
2017-01-17T05:53:45.055Z,0
2017-01-17T05:54:26.332Z,0
2017-01-17T05:55:08.488Z,0
2017-01-17T05:55:49.662Z,0
2017-01-17T05:56:32.651Z,0
2017-01-17T05:57:13.110Z,0
2017-01-17T05:57:53.570Z,0
2017-01-17T05:58:34.561Z,0
2017-01-17T05:59:16.761Z,0
2017-01-17T05:59:57.786Z,0
2017-01-17T06:00:39.064Z,0
2017-01-17T06:01:20.347Z,0
2017-01-17T06:02:00.810Z,0
2017-01-17T06:02:42.978Z,0
2017-01-17T06:03:23.482Z,0
2017-01-17T06:04:04.055Z,0
2017-01-17T06:04:45.371Z,0
2017-01-17T06:05:25.844Z,0
2017-01-17T06:06:06.371Z,0
2017-01-17T06:06:48.379Z,0
2017-01-17T06:07:29.564Z,0
2017-01-17T06:08:10.042Z,0
2017-01-17T06:08:51.094Z,0
2017-01-17T06:09:32.246Z,0
2017-01-17T06:10:14.465Z,0
2017-01-17T06:10:54.998Z,0
2017-01-17T06:11:35.467Z,0
2017-01-17T06:12:15.960Z,0
2017-01-17T06:12:56.444Z,0
2017-01-17T06:13:37.044Z,0
2017-01-17T06:14:17.447Z,0
2017-01-17T06:14:57.942Z,0
2017-01-17T06:15:39.125Z,0
2017-01-17T06:16:20.604Z,0
2017-01-17T06:17:01.093Z,0
2017-01-17T06:17:41.558Z,0
2017-01-17T06:18:22.074Z,0
2017-01-17T06:19:02.586Z,0
2017-01-17T06:19:43.665Z,0
2017-01-17T06:20:24.142Z,0
2017-01-17T06:21:07.246Z,0
2017-01-17T06:21:48.470Z,0
2017-01-17T06:22:29.473Z,0
2017-01-17T06:23:10.769Z,0
2017-01-17T06:23:51.994Z,0
2017-01-17T06:24:32.485Z,0
2017-01-17T06:25:12.971Z,0
2017-01-17T06:25:53.504Z,0
2017-01-17T06:26:35.351Z,0
2017-01-17T06:27:16.835Z,0
2017-01-17T06:27:57.342Z,0
2017-01-17T06:28:37.863Z,0
2017-01-17T06:29:18.961Z,0
2017-01-17T06:29:59.970Z,0
2017-01-17T06:30:40.464Z,0
2017-01-17T06:31:21.684Z,0
2017-01-17T06:32:02.116Z,0
2017-01-17T06:32:42.597Z,0
2017-01-17T06:33:24.098Z,0
2017-01-17T06:34:04.649Z,0
2017-01-17T06:34:45.177Z,0
2017-01-17T06:35:25.658Z,0
2017-01-17T06:36:06.184Z,0
2017-01-17T06:36:46.675Z,0
2017-01-17T06:37:27.194Z,0
2017-01-17T06:38:08.538Z,0
2017-01-17T06:38:49.005Z,0
2017-01-17T06:39:29.477Z,0
2017-01-17T06:40:09.966Z,0
2017-01-17T06:40:50.462Z,0
2017-01-17T06:41:31.114Z,0
2017-01-17T06:42:11.670Z,0
2017-01-17T06:42:53.250Z,0
2017-01-17T06:43:33.756Z,0
2017-01-17T06:44:14.230Z,0
2017-01-17T06:44:54.698Z,0
2017-01-17T06:45:36.060Z,4
2017-01-17T06:46:16.543Z,4
2017-01-17T06:46:57.983Z,4
2017-01-17T06:47:38.437Z,4
2017-01-17T06:48:19.014Z,4
2017-01-17T06:48:59.453Z,4
2017-01-17T06:49:39.909Z,4
2017-01-17T06:50:20.381Z,4
2017-01-17T06:51:00.932Z,4
2017-01-17T06:51:41.543Z,4
2017-01-17T06:52:22.039Z,8
2017-01-17T06:53:02.550Z,8
2017-01-17T06:53:43.096Z,8
2017-01-17T06:54:23.544Z,4
2017-01-17T06:55:04.034Z,4
2017-01-17T06:55:44.506Z,4
2017-01-17T06:56:24.986Z,4
2017-01-17T06:57:05.531Z,4
2017-01-17T06:57:45.979Z,4
2017-01-17T06:58:26.468Z,8
2017-01-17T06:59:06.941Z,8
2017-01-17T06:59:47.433Z,8
2017-01-17T07:00:27.889Z,4
2017-01-17T07:01:09.178Z,8
2017-01-17T07:01:49.643Z,8
2017-01-17T07:02:30.145Z,8
2017-01-17T07:03:10.656Z,4
2017-01-17T07:03:51.104Z,8
2017-01-17T07:04:31.560Z,8
2017-01-17T07:05:12.064Z,12
2017-01-17T07:05:52.558Z,8
2017-01-17T07:06:33.001Z,12
2017-01-17T07:07:13.534Z,8
2017-01-17T07:07:53.998Z,12
2017-01-17T07:08:34.507Z,12
2017-01-17T07:09:14.985Z,8
2017-01-17T07:09:55.503Z,16
2017-01-17T07:10:36.011Z,12
2017-01-17T07:11:16.473Z,12
2017-01-17T07:11:56.957Z,12
2017-01-17T07:12:37.451Z,20
2017-01-17T07:13:17.929Z,20
2017-01-17T07:13:58.459Z,20
2017-01-17T07:14:38.961Z,24
2017-01-17T07:15:19.429Z,20
2017-01-17T07:15:59.924Z,24
2017-01-17T07:16:40.420Z,28
2017-01-17T07:17:20.919Z,28
2017-01-17T07:18:01.369Z,32
2017-01-17T07:18:41.883Z,36
2017-01-17T07:19:22.349Z,40
2017-01-17T07:20:02.834Z,44
2017-01-17T07:20:43.321Z,48
2017-01-17T07:21:23.777Z,52
2017-01-17T07:22:04.278Z,60
2017-01-17T07:22:44.748Z,64
2017-01-17T07:23:25.256Z,68
2017-01-17T07:24:05.760Z,72
2017-01-17T07:24:46.209Z,84
2017-01-17T07:25:26.763Z,88
2017-01-17T07:26:08.208Z,92
2017-01-17T07:26:48.628Z,100
2017-01-17T07:27:29.129Z,108
2017-01-17T07:28:09.644Z,112
2017-01-17T07:28:50.133Z,120
2017-01-17T07:29:30.576Z,124
2017-01-17T07:30:11.081Z,132
2017-01-17T07:30:51.589Z,140
2017-01-17T07:31:32.042Z,152
2017-01-17T07:32:13.462Z,160
2017-01-17T07:32:53.965Z,172
2017-01-17T07:33:34.436Z,180
2017-01-17T07:34:14.953Z,188
2017-01-17T07:34:55.450Z,200
2017-01-17T07:35:36.473Z,208
2017-01-17T07:36:19.776Z,220
2017-01-17T07:37:00.281Z,232
2017-01-17T07:37:43.354Z,240
2017-01-17T07:38:23.923Z,252
2017-01-17T07:39:04.285Z,260
2017-01-17T07:39:45.741Z,272
2017-01-17T07:40:30.825Z,280
2017-01-17T07:41:11.316Z,296
2017-01-17T07:41:51.874Z,308
2017-01-17T07:42:34.162Z,316
2017-01-17T07:43:14.653Z,328
2017-01-17T07:43:55.155Z,340
2017-01-17T07:44:35.642Z,352
2017-01-17T07:45:16.127Z,364
2017-01-17T07:45:56.611Z,380
2017-01-17T07:46:37.165Z,392
2017-01-17T07:47:17.640Z,404
2017-01-17T07:47:58.116Z,424
2017-01-17T07:48:38.605Z,440
2017-01-17T07:49:19.887Z,456
2017-01-17T07:50:00.385Z,472
2017-01-17T07:50:40.892Z,496
2017-01-17T07:51:21.370Z,512
2017-01-17T07:52:01.898Z,528
2017-01-17T07:52:42.410Z,536
2017-01-17T07:53:22.873Z,540
2017-01-17T07:54:03.374Z,552
2017-01-17T07:54:43.845Z,564
2017-01-17T07:55:24.340Z,572
2017-01-17T07:56:04.811Z,584
2017-01-17T07:56:45.276Z,596
2017-01-17T07:57:25.783Z,608
2017-01-17T07:58:06.286Z,624
2017-01-17T07:58:46.782Z,632
2017-01-17T07:59:27.264Z,640
2017-01-17T08:00:07.779Z,648
2017-01-17T08:00:48.268Z,648
2017-01-17T08:01:28.740Z,652
2017-01-17T08:02:09.310Z,656
2017-01-17T08:02:49.866Z,660
2017-01-17T08:03:30.327Z,668
2017-01-17T08:05:48.645Z,712
2017-01-17T08:06:30.975Z,724
2017-01-17T08:07:11.280Z,740
2017-01-17T08:07:51.760Z,768
2017-01-17T08:08:32.531Z,788
2017-01-17T08:09:13.629Z,812
2017-01-17T08:09:54.963Z,832
2017-01-17T08:10:36.113Z,856
2017-01-17T08:11:20.582Z,880
2017-01-17T08:12:02.822Z,900
2017-01-17T08:12:44.228Z,920
2017-01-17T08:13:25.200Z,936
2017-01-17T08:14:06.471Z,964
2017-01-17T08:16:20.279Z,1028
2017-01-17T08:17:01.137Z,1052
2017-01-17T08:17:41.995Z,1080
2017-01-17T08:18:23.366Z,1104
2017-01-17T08:19:04.034Z,1120
2017-01-17T08:19:44.951Z,1140
2017-01-17T08:20:25.506Z,1156
2017-01-17T08:21:06.254Z,1172
2017-01-17T08:21:46.784Z,1184
2017-01-17T08:22:27.271Z,1188
2017-01-17T08:23:07.803Z,1188
2017-01-17T08:23:48.319Z,1184
2017-01-17T08:24:28.823Z,1180
2017-01-17T08:25:10.040Z,1176
2017-01-17T08:25:51.062Z,1168
2017-01-17T08:26:32.565Z,1164
2017-01-17T08:27:13.057Z,1156
2017-01-17T08:27:53.568Z,1148
2017-01-17T08:28:35.054Z,1132
2017-01-17T08:29:15.548Z,1128
2017-01-17T08:29:56.057Z,1144
2017-01-17T08:30:36.547Z,1172
2017-01-17T08:31:17.686Z,1224
2017-01-17T08:31:58.232Z,1288
2017-01-17T08:32:39.542Z,1344
2017-01-17T08:33:20.068Z,1372
2017-01-17T08:34:00.580Z,1400
2017-01-17T08:34:41.104Z,1424
2017-01-17T08:35:21.635Z,1468
2017-01-17T08:36:02.138Z,1536
2017-01-17T08:36:42.667Z,1616
2017-01-17T08:37:24.853Z,1716
2017-01-17T08:38:05.351Z,1768
2017-01-17T08:38:45.811Z,1808
2017-01-17T08:39:26.294Z,1820
2017-01-17T08:40:06.837Z,1832
2017-01-17T08:40:47.332Z,1812
2017-01-17T08:41:27.800Z,1792
2017-01-17T08:42:08.389Z,1788
2017-01-17T08:42:49.560Z,1812
2017-01-17T08:43:30.054Z,1848
2017-01-17T08:44:10.512Z,1892
2017-01-17T08:44:51.014Z,1920
2017-01-17T08:45:31.523Z,1920
2017-01-17T08:46:12.019Z,1944
2017-01-17T08:46:52.541Z,1984
2017-01-17T08:47:33.036Z,2020
2017-01-17T08:48:13.526Z,2052
2017-01-17T08:48:54.060Z,2056
2017-01-17T08:49:34.527Z,2064
2017-01-17T08:50:15.006Z,2080
2017-01-17T08:50:55.472Z,2064
2017-01-17T08:51:35.993Z,2116
2017-01-17T08:52:16.474Z,2180
2017-01-17T08:52:57.012Z,2212
2017-01-17T08:53:37.492Z,2248
2017-01-17T08:54:18.047Z,2260
2017-01-17T08:54:58.558Z,2256
2017-01-17T08:55:39.111Z,2228
2017-01-17T08:56:19.692Z,2200
2017-01-17T08:57:00.199Z,2180
2017-01-17T08:57:40.672Z,2172
2017-01-17T08:58:21.198Z,2164
2017-01-17T08:59:01.703Z,2168
2017-01-17T08:59:42.209Z,2168
2017-01-17T09:00:22.695Z,2168
2017-01-17T09:01:03.203Z,2156
2017-01-17T09:01:43.699Z,2132
2017-01-17T09:02:24.161Z,2112
2017-01-17T09:03:04.665Z,2084
2017-01-17T09:03:45.150Z,2056
2017-01-17T09:04:25.635Z,2032
2017-01-17T09:05:06.131Z,2000
2017-01-17T09:05:46.648Z,1960
2017-01-17T09:06:27.124Z,1916
2017-01-17T09:07:07.602Z,1868
2017-01-17T09:07:48.069Z,1820
2017-01-17T09:08:28.557Z,1776
2017-01-17T09:09:09.107Z,1740
2017-01-17T09:09:49.605Z,1736
2017-01-17T09:10:30.110Z,1748
2017-01-17T09:11:10.623Z,1804
2017-01-17T09:11:51.154Z,1928
2017-01-17T09:12:31.672Z,2044
2017-01-17T09:13:12.170Z,2176
2017-01-17T09:13:52.609Z,2348
2017-01-17T09:14:33.169Z,2408
2017-01-17T09:15:13.639Z,2480
2017-01-17T09:15:54.099Z,2544
2017-01-17T09:16:34.590Z,2572
2017-01-17T09:17:15.067Z,2572
2017-01-17T09:17:55.583Z,2584
2017-01-17T09:18:36.063Z,2596
2017-01-17T09:19:16.579Z,2628
2017-01-17T09:19:57.015Z,2692
2017-01-17T09:20:37.767Z,2768
2017-01-17T09:21:18.236Z,2836
2017-01-17T09:21:58.731Z,2876
2017-01-17T09:22:39.211Z,2864
2017-01-17T09:23:19.686Z,2828
2017-01-17T09:24:00.175Z,2732
2017-01-17T09:24:40.649Z,2612
2017-01-17T09:25:21.122Z,2520
2017-01-17T09:26:01.647Z,2468
2017-01-17T09:26:42.351Z,2476
2017-01-17T09:27:22.802Z,2528
2017-01-17T09:28:03.282Z,2600
2017-01-17T09:28:43.749Z,2692
2017-01-17T09:29:24.242Z,2804
2017-01-17T09:30:04.683Z,3004
2017-01-17T09:30:45.211Z,3220
2017-01-17T09:31:25.715Z,3388
2017-01-17T09:32:06.218Z,3496
2017-01-17T09:32:46.682Z,3548
2017-01-17T09:33:27.199Z,3568
2017-01-17T09:34:07.869Z,3572
2017-01-17T09:34:48.354Z,3572
2017-01-17T09:35:28.844Z,3588
2017-01-17T09:36:09.411Z,3608
2017-01-17T09:36:49.866Z,3660
2017-01-17T09:37:30.421Z,3796
2017-01-17T09:38:10.914Z,3936
2017-01-17T09:38:51.444Z,4024
2017-01-17T09:39:32.022Z,4060
2017-01-17T09:40:12.520Z,4036
2017-01-17T09:40:52.991Z,4008
2017-01-17T09:41:33.494Z,4004
2017-01-17T09:42:13.956Z,4048
2017-01-17T09:42:54.442Z,4060
2017-01-17T09:43:34.942Z,4084
2017-01-17T09:44:15.425Z,4096
2017-01-17T09:44:55.946Z,4044
2017-01-17T09:45:36.452Z,3988
2017-01-17T09:46:16.979Z,3876
2017-01-17T09:46:57.638Z,3676
2017-01-17T09:47:38.127Z,3508
2017-01-17T09:48:18.628Z,3320
2017-01-17T09:48:59.163Z,3100
2017-01-17T09:49:39.634Z,2916
2017-01-17T09:50:20.136Z,2784
2017-01-17T09:51:00.622Z,2696
2017-01-17T09:51:41.140Z,2784
2017-01-17T09:52:21.623Z,2788
2017-01-17T09:53:02.384Z,2756
2017-01-17T09:53:42.840Z,2752
2017-01-17T09:54:23.448Z,2768
2017-01-17T09:55:03.917Z,2796
2017-01-17T09:55:44.479Z,2824
2017-01-17T09:56:24.993Z,2852
2017-01-17T09:57:12.608Z,2924
2017-01-17T09:57:55.158Z,3004
2017-01-17T09:58:35.637Z,3084
2017-01-17T09:59:16.120Z,3184
2017-01-17T09:59:56.566Z,3276
2017-01-17T10:00:37.246Z,3388
2017-01-17T10:01:17.556Z,3504
2017-01-17T10:01:58.056Z,3628
2017-01-17T10:02:38.525Z,3840
2017-01-17T10:03:19.020Z,4068
2017-01-17T10:03:59.633Z,4208
2017-01-17T10:04:40.336Z,4332
2017-01-17T10:05:21.674Z,4180
2017-01-17T10:06:03.866Z,4584
2017-01-17T10:06:51.745Z,4608
2017-01-17T10:07:40.642Z,4628
2017-01-17T10:08:32.381Z,4952
2017-01-17T10:09:21.063Z,5088
2017-01-17T10:10:10.335Z,5128
2017-01-17T10:10:52.491Z,5428
2017-01-17T10:11:33.007Z,5520
2017-01-17T10:12:13.541Z,5196
2017-01-17T10:12:54.130Z,5120